ADDS METAR Data INFO
IDs: Format: Raw Decoded Include TAF

Data at: 0934 UTC 11 Dec 2017

KMHL 110915Z AUTO 00000KT 10SM CLR 02/M02 A3004 RMK AO2
KMHL 110855Z AUTO 00000KT 10SM CLR 02/M02 A3005 RMK AO2
KMHL 110835Z AUTO 00000KT 10SM CLR 02/M02 A3006 RMK AO2
KMHL 110815Z AUTO 00000KT 10SM CLR 02/M02 A3007 RMK AO2
KMHL 110755Z AUTO 00000KT 10SM CLR 02/M02 A3008 RMK AO2
KMHL 110735Z AUTO 00000KT 10SM CLR 02/M02 A3009 RMK AO2
KMHL 110715Z AUTO 00000KT 10SM CLR 03/M02 A3010 RMK AO2
KMHL 110655Z AUTO 00000KT 10SM CLR 03/M02 A3010 RMK AO2
KMHL 110635Z AUTO 00000KT 10SM CLR 03/M02 A3011 RMK AO2
KMHL 110615Z AUTO 00000KT 10SM CLR 03/M02 A3012 RMK AO2
KMHL 110555Z AUTO 00000KT 10SM CLR 03/M02 A3013 RMK AO2
KMHL 110535Z AUTO 00000KT 10SM CLR 03/M02 A3014 RMK AO2
KMHL 110515Z AUTO 00000KT 10SM CLR 03/M02 A3014 RMK AO2
KMHL 110455Z AUTO 00000KT 10SM CLR 03/M02 A3014 RMK AO2
KMHL 110435Z AUTO 00000KT 10SM CLR 03/M02 A3014 RMK AO2
KMHL 110415Z AUTO 00000KT 10SM CLR 04/M02 A3014 RMK AO2
KMHL 110355Z AUTO 00000KT 10SM CLR 03/M02 A3014 RMK AO2
KMHL 110335Z AUTO 00000KT 10SM CLR 04/M02 A3015 RMK AO2
KMHL 110315Z AUTO 00000KT 10SM CLR 07/M02 A3015 RMK AO2
KMHL 110255Z AUTO 00000KT 10SM CLR 07/M02 A3016 RMK AO2
KMHL 110235Z AUTO 00000KT 10SM CLR 07/M02 A3016 RMK AO2
KMHL 110215Z AUTO 00000KT 10SM CLR 07/M02 A3015 RMK AO2
KMHL 110155Z AUTO 00000KT 10SM CLR 07/M02 A3015 RMK AO2
KMHL 110135Z AUTO 00000KT 10SM CLR 07/M02 A3014 RMK AO2
KMHL 110115Z AUTO 00000KT 10SM CLR 07/M02 A3014 RMK AO2
KMHL 110055Z AUTO 00000KT 10SM CLR 07/M02 A3014 RMK AO2
KMHL 110035Z AUTO 00000KT 10SM CLR 08/M02 A3014 RMK AO2
KMHL 110015Z AUTO 00000KT 10SM CLR 08/M02 A3014 RMK AO2
KMHL 102355Z AUTO 00000KT 10SM CLR 08/M02 A3014 RMK AO2
KMHL 102335Z AUTO 00000KT 10SM CLR 09/M02 A3014 RMK AO2
KMHL 102315Z AUTO 00000KT 10SM CLR 09/M02 A3013 RMK AO2
KMHL 102255Z AUTO 00000KT 10SM CLR 10/M01 A3013 RMK AO2
KMHL 102235Z AUTO 00000KT 10SM CLR 11/M01 A3012 RMK AO2
KMHL 102215Z AUTO 28007KT 10SM CLR 12/M01 A3011 RMK AO2
KMHL 102155Z AUTO 28005KT 10SM CLR 12/M01 A3010 RMK AO2
KMHL 102135Z AUTO 28006KT 10SM CLR 12/M02 A3009 RMK AO2
KMHL 102115Z AUTO 29012G17KT 10SM CLR 13/M02 A3009 RMK AO2
KMHL 102055Z AUTO 29007KT 10SM CLR 13/M01 A3008 RMK AO2
KMHL 102035Z AUTO 29012G17KT 10SM CLR 13/M01 A3008 RMK AO2
KMHL 102015Z AUTO 27009G19KT 10SM CLR 12/M02 A3008 RMK AO2
KMHL 101955Z AUTO 28011G16KT 10SM CLR 12/M01 A3008 RMK AO2
KMHL 101935Z AUTO 29010G18KT 10SM CLR 12/M01 A3008 RMK AO2
KMHL 101915Z AUTO 28013KT 10SM CLR 12/M01 A3009 RMK AO2
KMHL 101855Z AUTO 29011G15KT 10SM CLR 12/M02 A3009 RMK AO2
KMHL 101835Z AUTO 30009G16KT 10SM CLR 11/M01 A3009 RMK AO2
KMHL 101815Z AUTO 28010KT 10SM CLR 10/M01 A3009 RMK AO2
KMHL 101755Z AUTO 27012KT 10SM CLR 10/M01 A3009 RMK AO2
KMHL 101735Z AUTO 27012G16KT 10SM CLR 09/M01 A3009 RMK AO2
KMHL 101715Z AUTO 27004KT 10SM CLR 08/M02 A3009 RMK AO2
KMHL 101655Z AUTO 30014KT 10SM CLR 08/M02 A3010 RMK AO2
KMHL 101635Z AUTO 30017G22KT 10SM CLR 08/M02 A3010 RMK AO2
KMHL 101615Z AUTO 29010G14KT 10SM CLR 07/M02 A3010 RMK AO2
KMHL 101555Z AUTO 27009KT 10SM CLR 06/M02 A3010 RMK AO2
KMHL 101535Z AUTO 28009G15KT 10SM CLR 05/M02 A3009 RMK AO2
KMHL 101515Z AUTO 27005KT 10SM CLR 05/M02 A3009 RMK AO2
KMHL 101455Z AUTO 00000KT 10SM CLR 03/M02 A3008 RMK AO2
KMHL 101435Z AUTO 24008KT 10SM CLR 02/M03 A3007 RMK AO2
KMHL 101415Z AUTO 24008KT 10SM CLR 02/M03 A3007 RMK AO2
KMHL 101355Z AUTO 24009KT 10SM CLR 01/M03 A3007 RMK AO2
KMHL 101335Z AUTO 23006KT 10SM CLR 01/M03 A3006 RMK AO2
KMHL 101315Z AUTO 24007G14KT 10SM CLR 01/M03 A3006 RMK AO2
KMHL 101255Z AUTO 23003KT 10SM CLR 01/M03 A3005 RMK AO2
KMHL 101235Z AUTO 23004KT 10SM CLR 01/M03 A3006 RMK AO2
KMHL 101215Z AUTO 23005KT 10SM CLR 00/M04 A3005 RMK AO2
KMHL 101155Z AUTO 23006KT 10SM CLR 01/M04 A3005 RMK AO2
KMHL 101135Z AUTO 23013G16KT 10SM CLR 01/M04 A3005 RMK AO2
KMHL 101115Z AUTO 22010KT 10SM CLR 00/M04 A3004 RMK AO2
KMHL 101055Z AUTO 21010KT 10SM CLR 00/M05 A3005 RMK AO2
KMHL 101035Z AUTO 21009KT 10SM CLR M01/M05 A3005 RMK AO2
KMHL 101015Z AUTO 20009KT 10SM CLR M01/M05 A3007 RMK AO2
KMHL 100955Z AUTO 20008KT 10SM CLR M02/M06 A3009 RMK AO2
KMHL 100935Z AUTO 00000KT 10SM CLR M02/M06 A3011 RMK AO2
KMHL 100915Z AUTO 00000KT 10SM CLR M02/M06 A3012 RMK AO2
KMHL 100855Z AUTO 20003KT 10SM CLR M02/M06 A3012 RMK AO2
KMHL 100835Z AUTO 00000KT 10SM CLR M02/M06 A3013 RMK AO2
KMHL 100815Z AUTO 00000KT 10SM CLR M03/M06 A3014 RMK AO2
KMHL 100755Z AUTO 00000KT 10SM CLR M03/M07 A3015 RMK AO2
KMHL 100735Z AUTO 00000KT 10SM CLR M04/M07 A3016 RMK AO2
KMHL 100715Z AUTO 00000KT 10SM CLR M03/M07 A3017 RMK AO2
KMHL 100655Z AUTO 00000KT 10SM CLR M03/M07 A3017 RMK AO2
KMHL 100635Z AUTO 00000KT 10SM CLR M03/M07 A3019 RMK AO2
KMHL 100615Z AUTO 00000KT 10SM CLR M03/M07 A3019 RMK AO2
KMHL 100555Z AUTO 00000KT 10SM CLR M03/M07 A3019 RMK AO2
KMHL 100535Z AUTO 00000KT 10SM CLR M03/M07 A3020 RMK AO2
KMHL 100515Z AUTO 00000KT 10SM CLR M03/M07 A3020 RMK AO2
KMHL 100455Z AUTO 00000KT 10SM CLR M03/M07 A3020 RMK AO2
KMHL 100435Z AUTO 00000KT 10SM CLR M03/M07 A3020 RMK AO2
KMHL 100415Z AUTO 00000KT 10SM CLR M03/M07 A3021 RMK AO2
KMHL 100355Z AUTO 00000KT 10SM CLR M03/M07 A3022 RMK AO2
KMHL 100335Z AUTO 00000KT 10SM CLR M03/M07 A3022 RMK AO2
KMHL 100315Z AUTO 00000KT 10SM CLR M02/M07 A3023 RMK AO2
KMHL 100255Z AUTO 00000KT 10SM CLR M03/M07 A3023 RMK AO2
KMHL 100235Z AUTO 00000KT 10SM CLR M02/M06 A3023 RMK AO2
KMHL 100215Z AUTO 00000KT 10SM CLR M01/M07 A3023 RMK AO2
KMHL 100155Z AUTO 00000KT 10SM CLR M01/M07 A3023 RMK AO2
KMHL 100135Z AUTO 00000KT 10SM CLR M01/M07 A3023 RMK AO2
KMHL 100115Z AUTO 00000KT 10SM CLR M01/M07 A3023 RMK AO2
KMHL 100055Z AUTO 00000KT 10SM CLR M01/M07 A3022 RMK AO2
KMHL 100035Z AUTO 00000KT 10SM CLR M01/M07 A3022 RMK AO2
KMHL 100015Z AUTO 00000KT 10SM CLR 00/M07 A3023 RMK AO2
KMHL 092355Z AUTO 00000KT 10SM CLR 00/M07 A3022 RMK AO2
KMHL 092335Z AUTO 00000KT 10SM CLR 00/M07 A3022 RMK AO2
KMHL 092315Z AUTO 00000KT 10SM CLR 00/M07 A3022 RMK AO2
KMHL 092255Z AUTO 00000KT 10SM CLR 00/M07 A3021 RMK AO2
KMHL 092235Z AUTO 00000KT 10SM CLR 01/M07 A3021 RMK AO2
KMHL 092215Z AUTO 32005KT 10SM CLR 01/M07 A3020 RMK AO2
KMHL 092155Z AUTO 32010G18KT 10SM CLR 02/M07 A3019 RMK AO2
KMHL 092135Z AUTO 33009G16KT 10SM CLR 02/M07 A3018 RMK AO2